Bookmark and Share
Track history (hours):
 

Panagia

Last reported at 2014-Apr-19 16:29 UTC. Time now 2014-Apr-19 17:09 UTC.
Position N 54°58' W 001°18'.

Length 120 m; draft 6.5 m.

Type: Cargo ship. MMSI: 304610000.

NotesDate/timePositionNaut miles runAvg speedWind from/ knotsBaromVisibWave heightAir tempDewpointWater temp
2014-Apr-19 16:29N 54°58' W 001°18'6 0.5
2014-Apr-19 04:31N 55°03' W 001°22'0 0.0
2014-Apr-19 03:30N 55°03' W 001°22'0 0.0
2014-Apr-19 02:27N 55°03' W 001°22'0 0.1
2014-Apr-19 01:23N 55°03' W 001°22'0 0.0
2014-Apr-19 00:32N 55°03' W 001°22'0 0.1
2014-Apr-18 23:33N 55°03' W 001°23'1912.8
2014-Apr-18 22:05N 54°50' W 000°58'815.3
2014-Apr-18 21:33N 54°45' W 000°48'1514.6
2014-Apr-18 20:33N 54°35' W 000°29'1413.8
2014-Apr-18 19:34N 54°26' W 000°12'1313.0
2014-Apr-18 18:33N 54°17' E 000°05'1212.5
2014-Apr-18 17:33N 54°08' E 000°20'1212.5
2014-Apr-18 16:33N 53°60' E 000°35'5714.2
2014-Apr-18 12:33N 53°12' E 001°29'1313.3
2014-Apr-18 11:33N 53°01' E 001°41'1212.1
2014-Apr-18 10:33N 52°54' E 001°57'1110.4
2014-Apr-18 09:32N 52°44' E 002°04'1111.4
2014-Apr-18 08:33N 52°33' E 002°01'1212.4
2014-Apr-18 07:33N 52°21' E 001°57'1413.8
2014-Apr-18 06:33N 52°08' E 001°52'1515.4
2014-Apr-18 05:33N 51°53' E 001°48'1515.1
2014-Apr-18 04:33N 51°37' E 001°49'1313.4
2014-Apr-18 03:33N 51°26' E 002°00'1312.8
2014-Apr-18 02:32N 51°14' E 001°51'1616.6
2014-Apr-18 01:33N 51°02' E 001°35'4614.9
2014-Apr-17 22:27N 50°28' E 000°45'1516.4
2014-Apr-17 21:33N 50°24' E 000°23'6215.5
2014-Apr-17 17:33N 50°07' W 001°10'1312.4
2014-Apr-17 16:32N 50°04' W 001°29'2410.9
2014-Apr-17 14:21N 49°57' W 002°05'1011.7
2014-Apr-17 13:28N 49°54' W 002°20'1413.5
2014-Apr-17 12:24N 49°50' W 002°42'1914.2
2014-Apr-17 11:04N 49°42' W 003°08'914.5
2014-Apr-17 10:28N 49°38' W 003°20'1314.7
2014-Apr-17 09:34N 49°31' W 003°38'  
2014-Apr-15 03:33N 37°57' W 009°37'1515.0
2014-Apr-15 02:33N 37°43' W 009°33'1514.9
2014-Apr-15 01:33N 37°28' W 009°29'21713.6
2014-Apr-14 09:34N 36°00' W 005°21'  

Dump ship's entire track history

sailing weather and tide predictions

Panagia — V2OQ5 — position and weather